EGNM

Leeds Bradford

Airport
ICAO code
EGNM
Summary
ICAO Region
EUR
ICAO Territory
Location

Yeadon, West Yorkshire, England,

Serving
Leeds and Bradford
Coordinates
53° 51' 58" N , 1° 39' 28" W
KCC
Cfb
Airport CFIT
Runway Visual Perspective
Metar
Observation
EGNM 170020Z 01013KT 340V040 7000 -DZ SCT003 BKN004 13/12 Q1014
Station
Leeds And Bradford
Date/Time
2022-08-17 00:20:00
Wind direction
10°
Wind speed
13 kts
Lowest cloud amount
scattered clouds
Temperature
13°C
Dew point
12°C
Humidity
93%
QNH
1014 hPa
Weather condition
n/a

Description

Domestic and international airport serving the cities of Leeds and Bradford and the rest of West Yorkshire.

Climatology

Temperate Marine climate/Oceanic climate (Köppen climate classification Cfb). Moderately cool summer and comparatively warm winter with a temperature range of only 14°C. Prevailing south-westerly winds from the Atlantic Ocean.

Runways

Designator Length Width Surface Rops
14/32 2250 46 CON Yes/Yes

Airport map

Aerial View

SKYbrary Partners:

Safety knowledge contributed by: